< < Back
Terminal Aerodrome Forecast


Current Version              Previous Versions:   1  2  3  4  5  6  7  8  9  

Terminal Aerodrome Forecast

786
FTUS42 KGSP 032320
TAFGSP
TAF
KGSP 032320Z 0400/0424 20008KT P6SM FEW070
     FM040300 18003KT P6SM SCT070
     FM041900 20006KT P6SM FEW070 SCT210=

Latest METAR

812
SAUS70 KWBC 040256
MTRGSP
METAR KGSP 040253Z 18005KT 10SM CLR 17/11 A3018 RMK AO2 SLP212 T01720106
51016


USA.gov is the U.S. government's official web portal to all federal, state and local government web resources and services.